Test Metars

LFOB 191830Z AUTO 01007KT CAVOK 19/12 Q1021 NOSIG

 

Available data for LFOB from the past 2 hours
BEAUVAIS/TILLE(A
Metar
LFOB 191830Z AUTO 01007KT CAVOK 19/12 Q1021 NOSIG

18:30 UTC

Wind: 10° 7kt

Visibility:

Sky:

Temp: 19 deg C / 66.2 deg F

Dewpoint: 12 deg C / 53.6 deg F

Pressure: 1021 hPa

TAF
TAF LFOB 191700Z 1918/2018 36010KT CAVOK BECMG 1919/1922 VRB02KT BECMG 2006/2008 16010KT RA BKN013 TEMPO 2007/2012 VRB20G30KT 2000 +RA BKN007 BKN050CB BECMG 2012/2014 30015G25KT NSW BKN020 BECMG 2015/2017 28012KT

Réalisateur / Photographe